createdAt,value
2023-02-08T00:01:08.033Z,97345.94
2023-02-08T00:03:36.004Z,97337.38
2023-02-08T00:06:04.343Z,97350.63
2023-02-08T00:08:32.951Z,97372.31
2023-02-08T00:11:02.225Z,97373.81
2023-02-08T00:13:30.204Z,97375.63
2023-02-08T00:15:58.216Z,97389.44
2023-02-08T00:18:26.180Z,97357.81
2023-02-08T00:20:55.602Z,97356.16
2023-02-08T00:23:23.420Z,97369.00
2023-02-08T00:25:51.257Z,97362.78
2023-02-08T00:28:20.886Z,97345.94
2023-02-08T00:30:49.944Z,97374.09
2023-02-08T00:33:17.887Z,97389.44
2023-02-08T00:35:45.836Z,97372.31
2023-02-08T00:38:13.737Z,97377.28
2023-02-08T00:40:42.082Z,97390.38
2023-02-08T00:43:10.048Z,97374.94
2023-02-08T00:45:39.862Z,97383.50
2023-02-08T00:48:08.082Z,97392.75
2023-02-08T00:50:43.374Z,97403.97
2023-02-08T00:53:11.312Z,97410.88
2023-02-08T00:55:39.111Z,97392.03
2023-02-08T00:58:06.980Z,97394.41
2023-02-08T01:00:34.855Z,97425.38
2023-02-08T01:03:04.808Z,97422.75
2023-02-08T01:05:32.661Z,97434.63
2023-02-08T01:08:00.591Z,97445.13
2023-02-08T01:10:28.526Z,97450.91
2023-02-08T01:12:56.419Z,97459.47
2023-02-08T01:15:24.302Z,97480.06
2023-02-08T01:17:54.833Z,97458.66
2023-02-08T01:20:25.062Z,97492.91
2023-02-08T01:22:52.860Z,97483.25
2023-02-08T01:25:20.770Z,97492.91
2023-02-08T01:27:48.774Z,97479.91
2023-02-08T01:30:17.594Z,97513.38
2023-02-08T01:32:45.516Z,97510.03
2023-02-08T01:35:13.677Z,97525.41
2023-02-08T01:37:43.028Z,97527.91
2023-02-08T01:40:12.187Z,97537.44
2023-02-08T01:42:40.194Z,97540.75
2023-02-08T01:45:30.071Z,97549.31
2023-02-08T01:48:04.432Z,97543.38
2023-02-08T01:50:37.563Z,97551.94
2023-02-08T01:53:07.430Z,97563.16
2023-02-08T01:55:39.554Z,97535.78
2023-02-08T01:58:12.555Z,97522.19
2023-02-08T02:00:41.115Z,97537.44
2023-02-08T02:03:09.781Z,97568.41
2023-02-08T02:05:42.444Z,97565.78
2023-02-08T02:08:12.664Z,97592.19
2023-02-08T02:10:42.591Z,97567.44
2023-02-08T02:13:14.746Z,97571.72
2023-02-08T02:15:44.608Z,97593.13
2023-02-08T02:18:15.219Z,97554.56
2023-02-08T02:20:59.997Z,97581.94
2023-02-08T02:24:06.189Z,97582.78
2023-02-08T02:27:05.838Z,97600.75
2023-02-08T02:29:49.377Z,97614.56
2023-02-08T02:32:36.067Z,97604.34
2023-02-08T02:35:13.389Z,97617.88
2023-02-08T02:37:54.038Z,97581.53
2023-02-08T02:40:30.770Z,97596.47
2023-02-08T02:43:29.472Z,97618.59
2023-02-08T02:46:04.397Z,97623.97
2023-02-08T02:48:39.852Z,97603.78
2023-02-08T02:51:13.535Z,97602.41
2023-02-08T02:53:48.911Z,97619.53
2023-02-08T02:56:21.098Z,97625.78
2023-02-08T02:58:49.640Z,97586.06
2023-02-08T03:01:26.015Z,97594.09
2023-02-08T03:03:54.809Z,97619.81
2023-02-08T03:06:38.904Z,97617.88
2023-02-08T03:09:22.875Z,97596.59
2023-02-08T03:11:58.293Z,97622.31
2023-02-08T03:14:35.946Z,97641.25
2023-02-08T03:17:15.970Z,97630.06
2023-02-08T03:19:52.124Z,97635.16
2023-02-08T03:22:26.981Z,97642.66
2023-02-08T03:24:58.085Z,97648.91
2023-02-08T03:27:33.152Z,97655.53
2023-02-08T03:30:07.314Z,97641.16
2023-02-08T03:32:41.967Z,97665.91
2023-02-08T03:35:16.282Z,97669.38
2023-02-08T03:37:50.069Z,97650.56
2023-02-08T03:40:22.097Z,97668.09
2023-02-08T03:42:51.818Z,97654.00
2023-02-08T03:45:25.068Z,97630.75
2023-02-08T03:47:56.019Z,97620.66
2023-02-08T03:50:25.119Z,97630.88
2023-02-08T03:52:55.019Z,97675.59
2023-02-08T03:55:26.535Z,97660.91
2023-02-08T03:57:59.483Z,97671.28
2023-02-08T04:00:28.987Z,97684.03
2023-02-08T04:03:00.470Z,97637.56
2023-02-08T04:05:29.417Z,97631.72
2023-02-08T04:07:58.582Z,97629.50
2023-02-08T04:10:26.600Z,97678.06
2023-02-08T04:12:54.421Z,97634.09
2023-02-08T04:15:22.268Z,97635.91
2023-02-08T04:17:50.203Z,97657.47
2023-02-08T04:20:18.207Z,97671.16
2023-02-08T04:22:46.146Z,97656.38
2023-02-08T04:25:15.545Z,97675.44
2023-02-08T04:27:43.861Z,97657.47
2023-02-08T04:30:13.149Z,97694.25
2023-02-08T04:32:41.237Z,97709.63
2023-02-08T04:35:09.260Z,97698.69
2023-02-08T04:37:37.073Z,97700.47
2023-02-08T04:40:05.623Z,97727.88
2023-02-08T04:42:34.836Z,97720.81
2023-02-08T04:45:02.652Z,97747.50
2023-02-08T04:47:30.418Z,97738.66
2023-02-08T04:49:58.200Z,97748.47
2023-02-08T04:52:26.050Z,97715.69
2023-02-08T04:54:53.926Z,97724.41
2023-02-08T04:57:21.782Z,97721.78
2023-02-08T04:59:51.164Z,97733.00
2023-02-08T05:02:18.969Z,97751.81
2023-02-08T05:04:46.810Z,97751.81
2023-02-08T05:07:14.594Z,97762.78
2023-02-08T05:09:42.455Z,97759.56
2023-02-08T05:12:10.295Z,97732.03
2023-02-08T05:14:38.161Z,97738.25
2023-02-08T05:17:07.372Z,97752.78
2023-02-08T05:19:35.189Z,97744.88
2023-02-08T05:22:03.127Z,97762.06
2023-02-08T05:24:31.109Z,97714.88
2023-02-08T05:26:58.880Z,97729.66
2023-02-08T05:29:26.962Z,97695.34
2023-02-08T05:31:54.804Z,97694.41
2023-02-08T05:34:24.107Z,97682.50
2023-02-08T05:36:51.963Z,97700.34
2023-02-08T05:39:19.815Z,97714.16
2023-02-08T05:41:47.605Z,97739.06
2023-02-08T05:44:15.424Z,97760.91
2023-02-08T05:46:43.391Z,97744.88
2023-02-08T05:49:11.269Z,97720.94
2023-02-08T05:51:40.497Z,97774.25
2023-02-08T05:54:08.339Z,97751.66
2023-02-08T05:56:36.231Z,97782.00
2023-02-08T05:59:04.885Z,97758.50
2023-02-08T06:01:32.800Z,97782.84
2023-02-08T06:04:01.003Z,97772.31
2023-02-08T06:06:29.243Z,97791.41
2023-02-08T06:08:58.492Z,97776.88
2023-02-08T06:11:28.574Z,97793.91
2023-02-08T06:13:56.873Z,97783.66
2023-02-08T06:16:24.853Z,97783.09
2023-02-08T06:18:52.630Z,97785.31
2023-02-08T06:21:20.408Z,97816.47
2023-02-08T06:23:48.246Z,97805.81
2023-02-08T06:26:17.964Z,97819.78
2023-02-08T06:28:45.812Z,97823.09
2023-02-08T06:31:15.401Z,97848.84
2023-02-08T06:33:43.291Z,97835.16
2023-02-08T06:36:11.392Z,97848.16
2023-02-08T06:38:39.336Z,97842.91
2023-02-08T06:41:07.145Z,97860.06
2023-02-08T06:43:36.389Z,97842.91
2023-02-08T06:46:05.000Z,97862.44
2023-02-08T06:48:33.081Z,97849.13
2023-02-08T06:51:00.979Z,97882.25
2023-02-08T06:53:28.718Z,97878.34
2023-02-08T06:55:56.728Z,97872.81
2023-02-08T06:58:24.688Z,97892.78
2023-02-08T07:00:53.876Z,97885.81
2023-02-08T07:03:22.666Z,97909.94
2023-02-08T07:06:04.049Z,97914.09
2023-02-08T07:08:32.261Z,97928.78
2023-02-08T07:11:00.069Z,97925.31
2023-02-08T07:13:28.025Z,97921.03
2023-02-08T07:15:57.201Z,97933.91
2023-02-08T07:18:25.113Z,97952.63
2023-02-08T07:20:53.066Z,97933.09
2023-02-08T07:23:20.921Z,97939.03
2023-02-08T07:25:58.281Z,97932.38
2023-02-08T07:28:26.520Z,97944.03
2023-02-08T07:30:54.844Z,97969.78
2023-02-08T07:33:25.019Z,97988.91
2023-02-08T07:35:53.222Z,97993.19
2023-02-08T07:38:21.108Z,97970.63
2023-02-08T07:40:48.948Z,97993.91
2023-02-08T07:43:16.833Z,98010.28
2023-02-08T07:45:44.727Z,98012.91
2023-02-08T07:48:12.510Z,98026.63
2023-02-08T07:50:41.932Z,98043.69
2023-02-08T07:53:10.488Z,98030.78
2023-02-08T07:55:38.305Z,98042.84
2023-02-08T07:58:06.123Z,98026.50
2023-02-08T08:00:33.912Z,98052.28
2023-02-08T08:03:01.738Z,98040.22
2023-02-08T08:05:29.596Z,98084.16
2023-02-08T08:07:58.855Z,98088.47
2023-02-08T08:10:26.711Z,98086.78
2023-02-08T08:12:54.660Z,98103.84
2023-02-08T08:15:22.409Z,98111.47
2023-02-08T08:17:50.281Z,98096.09
2023-02-08T08:20:18.629Z,98118.41
2023-02-08T08:22:47.589Z,98102.06
2023-02-08T08:25:16.947Z,98117.56
2023-02-08T08:27:45.041Z,98149.22
2023-02-08T08:30:15.183Z,98151.03
2023-02-08T08:32:43.094Z,98163.50
2023-02-08T08:35:11.534Z,98185.81
2023-02-08T08:37:39.370Z,98190.56
2023-02-08T08:40:08.843Z,98226.63
2023-02-08T08:42:39.838Z,98235.28
2023-02-08T08:45:09.552Z,98217.19
2023-02-08T08:47:37.317Z,98218.88
2023-02-08T08:50:05.347Z,98244.00
2023-02-08T08:52:33.495Z,98243.03
2023-02-08T08:55:01.324Z,98272.44
2023-02-08T08:57:29.192Z,98261.06
2023-02-08T08:59:58.470Z,98265.50
2023-02-08T09:02:26.486Z,98239.47
2023-02-08T09:04:54.337Z,98263.84
2023-02-08T09:07:22.211Z,98255.81
2023-02-08T09:09:50.104Z,98274.81
2023-02-08T09:12:18.328Z,98290.34
2023-02-08T09:14:46.179Z,98294.66
2023-02-08T09:17:15.503Z,98290.34
2023-02-08T09:19:43.543Z,98293.97
2023-02-08T09:22:11.345Z,98309.38
2023-02-08T09:24:40.126Z,98321.31
2023-02-08T09:27:08.077Z,98333.38
2023-02-08T09:29:36.171Z,98357.31
2023-02-08T09:32:04.495Z,98367.00
2023-02-08T09:34:33.638Z,98386.03
2023-02-08T09:37:01.463Z,98391.06
2023-02-08T09:39:29.326Z,98391.06
2023-02-08T09:42:30.128Z,98383.28
2023-02-08T09:45:18.895Z,98398.81
2023-02-08T09:47:53.417Z,98431.59
2023-02-08T09:50:29.617Z,98451.06
2023-02-08T09:53:05.350Z,98456.59
2023-02-08T09:55:38.198Z,98470.22
2023-02-08T09:58:17.814Z,98473.59
2023-02-08T10:00:50.902Z,98489.16
2023-02-08T10:03:30.290Z,98461.63
2023-02-08T10:05:59.677Z,98417.66
2023-02-08T10:08:35.196Z,98456.59
2023-02-08T10:11:21.993Z,98446.06
2023-02-08T10:14:17.180Z,98440.22
2023-02-08T10:16:56.588Z,98447.03
2023-02-08T10:19:42.585Z,98456.47
2023-02-08T10:22:25.796Z,98483.19
2023-02-08T10:25:12.921Z,98462.97
2023-02-08T10:27:49.010Z,98483.31
2023-02-08T10:30:25.962Z,98494.44
2023-02-08T10:33:01.575Z,98488.56
2023-02-08T10:35:37.050Z,98461.47
2023-02-08T10:38:44.099Z,98508.19
2023-02-08T10:41:19.608Z,98516.69
2023-02-08T10:43:52.803Z,98527.94
2023-02-08T10:46:26.873Z,98558.09
2023-02-08T10:49:05.010Z,98560.72
2023-02-08T10:51:32.884Z,98566.72
2023-02-08T10:54:02.142Z,98570.06
2023-02-08T10:56:40.634Z,98576.16
2023-02-08T10:59:16.384Z,98607.19
2023-02-08T11:01:46.341Z,98627.09
2023-02-08T11:04:14.831Z,98618.47
2023-02-08T11:06:44.247Z,98636.53
2023-02-08T11:09:24.934Z,98652.94
2023-02-08T11:11:53.666Z,98644.19
2023-02-08T11:14:34.984Z,98641.81
2023-02-08T11:17:03.281Z,98661.56
2023-02-08T11:19:42.534Z,98659.78
2023-02-08T11:22:17.169Z,98676.19
2023-02-08T11:24:50.492Z,98689.13
2023-02-08T11:27:30.019Z,98706.38
2023-02-08T11:30:20.567Z,98727.00
2023-02-08T11:32:50.734Z,98740.91
2023-02-08T11:35:25.700Z,98735.63
2023-02-08T11:37:55.324Z,98744.97
2023-02-08T11:40:28.957Z,98746.06
2023-02-08T11:42:57.792Z,98743.41
2023-02-08T11:45:28.562Z,98694.31
2023-02-08T11:47:57.182Z,98713.22
2023-02-08T11:50:28.026Z,98724.38
2023-02-08T11:53:00.475Z,98735.63
2023-02-08T11:55:32.973Z,98718.38
2023-02-08T11:58:03.700Z,98725.31
2023-02-08T12:00:34.161Z,98726.16
2023-02-08T12:03:05.105Z,98721.72
2023-02-08T12:05:42.871Z,98722.69
2023-02-08T12:08:24.792Z,98734.66
2023-02-08T12:11:08.996Z,98730.34
2023-02-08T12:13:59.771Z,98717.53
2023-02-08T12:16:42.875Z,98715.13
2023-02-08T12:19:34.629Z,98720.16
2023-02-08T12:22:09.222Z,98716.69
2023-02-08T12:24:48.455Z,98735.63
2023-02-08T12:27:29.455Z,98761.53
2023-02-08T12:30:04.288Z,98745.09
2023-02-08T12:32:51.347Z,98739.81
2023-02-08T12:35:43.538Z,98733.94
2023-02-08T12:38:41.902Z,98725.19
2023-02-08T12:41:19.711Z,98721.00
2023-02-08T12:43:58.407Z,98764.19
2023-02-08T12:46:47.823Z,98766.81
2023-02-08T12:49:36.842Z,98746.19
2023-02-08T12:52:13.669Z,98745.22
2023-02-08T12:54:46.110Z,98719.34
2023-02-08T12:57:17.797Z,98730.59
2023-02-08T12:59:49.414Z,98708.03
2023-02-08T13:02:21.859Z,98740.91
2023-02-08T13:04:55.016Z,98731.44
2023-02-08T13:07:28.484Z,98721.97
2023-02-08T13:10:02.627Z,98721.00
2023-02-08T13:12:33.500Z,98720.88
2023-02-08T13:15:09.240Z,98724.38
2023-02-08T13:17:47.028Z,98739.81
2023-02-08T13:20:33.536Z,98749.53
2023-02-08T13:23:04.672Z,98729.63
2023-02-08T13:25:37.368Z,98716.69
2023-02-08T13:28:09.046Z,98732.41
2023-02-08T13:30:40.505Z,98692.72
2023-02-08T13:33:17.610Z,98697.75
2023-02-08T13:35:51.441Z,98736.59
2023-02-08T13:38:29.405Z,98745.22
2023-02-08T13:41:05.799Z,98742.56
2023-02-08T13:43:40.335Z,98734.78
2023-02-08T13:46:11.706Z,98720.16
2023-02-08T13:48:46.068Z,98734.91
2023-02-08T13:52:03.458Z,98732.28
2023-02-08T13:54:31.454Z,98711.66
2023-02-08T13:56:59.343Z,98711.66
2023-02-08T13:59:38.105Z,98715.03
2023-02-08T14:02:31.914Z,98703.00
2023-02-08T14:05:44.872Z,98699.41
2023-02-08T14:08:22.403Z,98694.38
2023-02-08T14:11:03.474Z,98691.88
2023-02-08T14:13:36.210Z,98689.13
2023-02-08T14:16:29.431Z,98703.84
2023-02-08T14:19:01.454Z,98678.09
2023-02-08T14:21:34.359Z,98672.84
2023-02-08T14:24:06.037Z,98678.81
2023-02-08T14:26:34.656Z,98664.91
2023-02-08T14:29:06.326Z,98685.75
2023-02-08T14:31:43.609Z,98679.78
2023-02-08T14:34:29.671Z,98671.88
2023-02-08T14:37:04.227Z,98665.03
2023-02-08T14:39:35.478Z,98664.22
2023-02-08T14:42:07.284Z,98652.09
2023-02-08T14:45:00.512Z,98656.41
2023-02-08T14:47:54.481Z,98644.44
2023-02-08T14:50:27.173Z,98640.97
2023-02-08T14:53:02.257Z,98642.66
2023-02-08T14:55:33.466Z,98635.69
2023-02-08T14:58:02.835Z,98648.75
2023-02-08T15:00:34.872Z,98640.97
2023-02-08T15:03:05.967Z,98634.16
2023-02-08T15:05:42.208Z,98603.84
2023-02-08T15:08:10.331Z,98606.50
2023-02-08T15:10:44.842Z,98597.00
2023-02-08T15:13:20.417Z,98594.38
2023-02-08T15:15:53.449Z,98584.19
2023-02-08T15:18:23.893Z,98555.84
2023-02-08T15:21:03.291Z,98553.19
2023-02-08T15:23:31.968Z,98515.50
2023-02-08T15:26:02.878Z,98509.41
2023-02-08T15:28:32.380Z,98503.16
2023-02-08T15:31:03.495Z,98496.34
2023-02-08T15:33:32.311Z,98475.75
2023-02-08T15:36:06.283Z,98459.34
2023-02-08T15:38:38.509Z,98464.50
2023-02-08T15:41:08.547Z,98452.28
2023-02-08T15:43:37.759Z,98442.72
2023-02-08T15:46:08.463Z,98458.53
2023-02-08T15:48:45.665Z,98449.06
2023-02-08T15:51:16.248Z,98433.66
2023-02-08T15:53:47.909Z,98431.97
2023-02-08T15:56:30.410Z,98416.31
2023-02-08T15:59:05.268Z,98406.16
2023-02-08T16:01:33.439Z,98387.25
2023-02-08T16:04:08.338Z,98395.75
2023-02-08T16:06:40.408Z,98381.25
2023-02-08T16:09:08.336Z,98380.19
2023-02-08T16:11:37.428Z,98383.66
2023-02-08T16:14:07.817Z,98388.94
2023-02-08T16:16:41.742Z,98393.22
2023-02-08T16:19:22.556Z,98381.25
2023-02-08T16:21:52.975Z,98367.97
2023-02-08T16:24:24.193Z,98375.06
2023-02-08T16:27:02.642Z,98354.47
2023-02-08T16:29:32.328Z,98346.69
2023-02-08T16:32:13.135Z,98335.44
2023-02-08T16:34:41.814Z,98321.84
2023-02-08T16:37:24.244Z,98302.94
2023-02-08T16:39:54.900Z,98297.69
2023-02-08T16:42:30.263Z,98296.84
2023-02-08T16:45:17.937Z,98278.69
2023-02-08T16:47:49.493Z,98249.50
2023-02-08T16:50:19.810Z,98261.34
2023-02-08T16:52:54.067Z,98256.34
2023-02-08T16:55:24.616Z,98257.16
2023-02-08T16:57:53.608Z,98264.09
2023-02-08T17:00:25.610Z,98272.69
2023-02-08T17:02:54.251Z,98266.72
2023-02-08T17:05:23.682Z,98263.25
2023-02-08T17:07:53.347Z,98237.44
2023-02-08T17:10:28.942Z,98228.13
2023-02-08T17:13:07.026Z,98220.34
2023-02-08T17:15:45.906Z,98204.94
2023-02-08T17:18:14.280Z,98231.47
2023-02-08T17:20:42.679Z,98228.81
2023-02-08T17:23:12.177Z,98201.34
2023-02-08T17:25:40.358Z,98191.91
2023-02-08T17:28:12.692Z,98215.09
2023-02-08T17:30:43.158Z,98204.81
2023-02-08T17:33:18.134Z,98214.38
2023-02-08T17:35:47.495Z,98185.81
2023-02-08T17:38:17.409Z,98183.31
2023-02-08T17:40:46.011Z,98184.28
2023-02-08T17:43:14.657Z,98169.47
2023-02-08T17:45:44.940Z,98166.13
2023-02-08T17:48:14.485Z,98173.88
2023-02-08T17:50:44.248Z,98179.03
2023-02-08T17:53:12.298Z,98162.78
2023-02-08T17:55:44.140Z,98151.44
2023-02-08T17:58:12.111Z,98146.28
2023-02-08T18:00:39.970Z,98160.84
2023-02-08T18:03:07.832Z,98173.75
2023-02-08T18:05:36.947Z,98173.31
2023-02-08T18:08:04.902Z,98173.06
2023-02-08T18:10:32.883Z,98138.88
2023-02-08T18:13:02.146Z,98120.56
2023-02-08T18:15:29.980Z,98150.59
2023-02-08T18:17:58.055Z,98144.63
2023-02-08T18:20:25.874Z,98148.09
2023-02-08T18:22:53.691Z,98163.63
2023-02-08T18:25:21.701Z,98161.81
2023-02-08T18:27:50.071Z,98124.59
2023-02-08T18:30:20.385Z,98147.25
2023-02-08T18:32:48.317Z,98155.84
2023-02-08T18:35:16.144Z,98146.28
2023-02-08T18:37:43.974Z,98143.66
2023-02-08T18:40:12.842Z,98132.09
2023-02-08T18:42:40.709Z,98142.97
2023-02-08T18:45:09.893Z,98126.69
2023-02-08T18:47:39.534Z,98128.63
2023-02-08T18:50:09.187Z,98123.09
2023-02-08T18:52:37.335Z,98123.34
2023-02-08T18:55:05.506Z,98141.25
2023-02-08T18:57:33.453Z,98136.97
2023-02-08T19:00:01.232Z,98126.81
2023-02-08T19:02:29.118Z,98123.34
2023-02-08T19:04:58.612Z,98102.56
2023-02-08T19:07:26.457Z,98112.84
2023-02-08T19:09:54.295Z,98120.59
2023-02-08T19:12:22.163Z,98117.25
2023-02-08T19:14:51.210Z,98111.16
2023-02-08T19:17:19.297Z,98108.66
2023-02-08T19:19:47.421Z,98100.91
2023-02-08T19:22:16.538Z,98100.06
2023-02-08T19:24:44.565Z,98094.94
2023-02-08T19:27:12.407Z,98084.56
2023-02-08T19:29:40.317Z,98077.63
2023-02-08T19:32:09.049Z,98078.72
2023-02-08T19:34:37.017Z,98060.69
2023-02-08T19:37:04.795Z,98053.78
2023-02-08T19:39:34.074Z,98035.03
2023-02-08T19:42:01.911Z,98040.88
2023-02-08T19:44:30.779Z,98021.88
2023-02-08T19:46:59.678Z,98024.63
2023-02-08T19:49:28.473Z,98011.59
2023-02-08T19:51:56.817Z,98004.94
2023-02-08T19:54:27.393Z,97997.19
2023-02-08T19:56:56.626Z,97977.94
2023-02-08T19:59:27.423Z,97957.56
2023-02-08T20:01:56.563Z,97925.84
2023-02-08T20:04:24.456Z,97874.44
2023-02-08T20:06:53.341Z,97871.13
2023-02-08T20:09:21.731Z,97866.81
2023-02-08T20:11:57.342Z,97848.97
2023-02-08T20:14:29.129Z,97849.53
2023-02-08T20:16:57.042Z,97851.31
2023-02-08T20:19:24.847Z,97845.38
2023-02-08T20:21:53.381Z,97819.63
2023-02-08T20:24:21.207Z,97768.94
2023-02-08T20:26:50.001Z,97757.88
2023-02-08T20:29:18.266Z,97733.09
2023-02-08T20:31:48.876Z,97675.41
2023-02-08T20:34:18.919Z,97633.50
2023-02-08T20:37:05.285Z,97615.50
2023-02-08T20:39:34.672Z,97599.47
2023-02-08T20:42:02.566Z,97570.28
2023-02-08T20:44:31.527Z,97559.78
2023-02-08T20:47:00.809Z,97572.81
2023-02-08T20:49:29.446Z,97576.34
2023-02-08T20:51:57.345Z,97583.03
2023-02-08T20:54:25.542Z,97602.66
2023-02-08T20:56:54.120Z,97643.03
2023-02-08T20:59:22.712Z,97633.50
2023-02-08T21:01:50.667Z,97634.03
2023-02-08T21:04:23.192Z,97605.41
2023-02-08T21:06:51.804Z,97578.88
2023-02-08T21:09:21.097Z,97530.06
2023-02-08T21:11:49.859Z,97506.16
2023-02-08T21:14:20.740Z,97465.97
2023-02-08T21:16:49.416Z,97422.16
2023-02-08T21:19:20.575Z,97389.84
2023-02-08T21:21:51.665Z,97350.59
2023-02-08T21:24:19.653Z,97337.75
2023-02-08T21:26:47.762Z,97310.16
2023-02-08T21:29:15.561Z,97284.06
2023-02-08T21:31:43.670Z,97258.28
2023-02-08T21:34:12.954Z,97227.47
2023-02-08T21:36:42.162Z,97221.56
2023-02-08T21:39:09.945Z,97195.91
2023-02-08T21:41:37.844Z,97172.88
2023-02-08T21:44:08.298Z,97160.88
2023-02-08T21:46:36.339Z,97146.25
2023-02-08T21:49:23.266Z,97130.13
2023-02-08T21:52:10.351Z,97110.53
2023-02-08T21:54:44.669Z,97087.38
2023-02-08T21:57:15.917Z,97084.06
2023-02-08T21:59:44.448Z,97089.16
2023-02-08T22:02:16.063Z,97073.88
2023-02-08T22:05:01.713Z,97051.53
2023-02-08T22:07:41.419Z,97032.78
2023-02-08T22:10:10.332Z,97002.19
2023-02-08T22:12:40.325Z,97005.63
2023-02-08T22:15:09.182Z,96977.66
2023-02-08T22:17:37.147Z,96968.03
2023-02-08T22:20:06.243Z,96964.72
2023-02-08T22:22:35.384Z,96952.59
2023-02-08T22:25:03.184Z,96948.34
2023-02-08T22:27:31.264Z,96937.47
2023-02-08T22:29:59.147Z,96914.31
2023-02-08T22:32:27.108Z,96915.44
2023-02-08T22:34:54.967Z,96882.22
2023-02-08T22:37:22.857Z,96876.03
2023-02-08T22:39:52.136Z,96869.97
2023-02-08T22:42:19.949Z,96860.75
2023-02-08T22:44:47.868Z,96858.94
2023-02-08T22:47:15.741Z,96848.78
2023-02-08T22:49:43.554Z,96848.78
2023-02-08T22:52:11.729Z,96837.75
2023-02-08T22:54:39.883Z,96840.25
2023-02-08T22:57:09.990Z,96830.75
2023-02-08T22:59:38.862Z,96840.25
2023-02-08T23:02:07.177Z,96854.69
2023-02-08T23:04:35.009Z,96855.66
2023-02-08T23:07:03.306Z,96860.59
2023-02-08T23:09:31.232Z,96867.50
2023-02-08T23:11:59.000Z,96865.84
2023-02-08T23:14:29.223Z,96869.13
2023-02-08T23:16:57.032Z,96855.38
2023-02-08T23:19:25.054Z,96855.38
2023-02-08T23:21:52.976Z,96856.47
2023-02-08T23:24:20.949Z,96845.31
2023-02-08T23:26:48.777Z,96838.44
2023-02-08T23:29:16.697Z,96833.25
2023-02-08T23:31:46.078Z,96861.44
2023-02-08T23:34:14.081Z,96863.50
2023-02-08T23:36:42.070Z,96866.66
2023-02-08T23:39:09.939Z,96845.47
2023-02-08T23:41:37.739Z,96882.91
2023-02-08T23:44:05.890Z,96878.50
2023-02-08T23:46:34.160Z,96881.13
2023-02-08T23:49:03.373Z,96874.09
2023-02-08T23:51:31.326Z,96877.66
2023-02-08T23:53:59.132Z,96859.78
2023-02-08T23:56:29.014Z,96837.34
2023-02-08T23:58:58.976Z,96863.91
